Arverne, NY

6:53 AM EDT on April 26, 2017 (GMT -0400)
Far Rockaway | | Change Station
Active Advisory: Coastal Flood Statement Active Notice: Coastal Flood Statement

Elev 7 ft 40.59 °N, 73.80 °W | Updated 23 seconds ago

Rain
Rain
53.5 °F
Feels Like 53.5 °F
N
10.0
Wind Variable Wind from NNE

Today
High -- | Low -- °F
--% Chance of Precip.
Yesterday
High -- | Low -- °F
Precip. -- in
Pressure 29.75 in
Visibility 2.0 miles
Clouds Mostly Cloudy 500 ft
Overcast 2300 ft
Dew Point 53 °F
Humidity 98%
Rainfall 0.30 in
Snow Depth Not available.
6:00 AM 7:46 PM
Waning Crescent, 0% visible
METAR KJFK 261051Z 02011KT 2SM R04R/6000VP6000FT +RA BR BKN005 OVC023 12/12 A2975 RMK AO2 RAB14 SLP074 VIS SE-SW 1 1/4 P0016 T01220117
Pressure 29.75 in
Visibility 2.0 miles
Clouds Mostly Cloudy 500 ft
Overcast 2300 ft
Dew Point 53 °F
Humidity 98%
Rainfall 0.30 in
Snow Depth Not available.
6:00 AM 7:46 PM
Waning Crescent, 0% visible
METAR KJFK 261051Z 02011KT 2SM R04R/6000VP6000FT +RA BR BKN005 OVC023 12/12 A2975 RMK AO2 RAB14 SLP074 VIS SE-SW 1 1/4 P0016 T01220117

Get Your Daily Forecast Email!

Thanks for signing up!

Be on the lookout for a verification email in your inbox.

You'll start receiving severe weather alerts in your inbox..

×

10-Day Weather Forecast

Almanac

Astronomy

Apr. 26, 2017 Rise Set
Actual Time
Civil Twilight
Nautical Twilight
Astronomical Twilight
Moon
Length of Visible Light
Length of Day
Tomorrow will be .
, % of the Moon is Illuminated

Today's Extremes

State Highs State Lows

Community

WunderPhotos

WunderBlog® & News

Nearby

Air Quality

  Air Quality AQ Index Pollutant
Not available.

Snow Depth

Station Depth Elevation

Earthquake Activity

City Distance Mag. Time & Date
Minimum magnitude displayed is 2.5.

Coastal Water Temperatures

Place Temperature

Stations

Nearby Weather Stations

Station Location Temp. Windchill Dew Point Humidity Wind Precip. Elev Updated Type
                   

Watches & Warnings

Coastal Flood Statement
Issued: 6:07 AM EDT Apr. 26, 2017 – National Weather Service

The combination of high astronomical tides and an easterly swell
will produce water levels approaching minor coastal flood benchmarks
at the time of high tide this evening.

Isolated minor coastal flooding of the most vulnerable shore
roads and/or basements is possible. There is no significant
threat to life or property.